createdAt,value
2022-08-17T00:00:43.193Z,5.32
2022-08-17T00:01:22.532Z,5.00
2022-08-17T00:01:58.478Z,6.20
2022-08-17T00:02:33.738Z,6.03
2022-08-17T00:03:19.123Z,7.38
2022-08-17T00:03:52.666Z,5.82
2022-08-17T00:04:24.863Z,6.57
2022-08-17T00:04:59.883Z,6.18
2022-08-17T00:05:34.795Z,6.80
2022-08-17T00:06:13.118Z,5.95
2022-08-17T00:06:45.416Z,5.57
2022-08-17T00:07:18.316Z,5.60
2022-08-17T00:07:50.699Z,6.03
2022-08-17T00:08:28.231Z,6.80
2022-08-17T00:09:03.279Z,5.47
2022-08-17T00:09:35.513Z,6.35
2022-08-17T00:10:10.993Z,7.80
2022-08-17T00:10:45.478Z,5.82
2022-08-17T00:11:22.849Z,5.80
2022-08-17T00:12:40.867Z,5.93
2022-08-17T00:12:49.857Z,7.00
2022-08-17T00:13:29.628Z,6.15
2022-08-17T00:14:05.091Z,6.10
2022-08-17T00:14:37.483Z,5.85
2022-08-17T00:15:10.876Z,6.03
2022-08-17T00:15:45.851Z,6.43
2022-08-17T00:16:21.280Z,5.40
2022-08-17T00:17:16.044Z,5.75
2022-08-17T00:17:50.631Z,6.18
2022-08-17T00:19:00.997Z,5.20
2022-08-17T00:19:23.045Z,6.18
2022-08-17T00:19:55.206Z,6.38
2022-08-17T00:20:30.606Z,5.97
2022-08-17T00:21:12.203Z,5.82
2022-08-17T00:22:32.890Z,5.90
2022-08-17T00:22:40.062Z,6.05
2022-08-17T00:23:17.033Z,6.20
2022-08-17T00:23:49.936Z,6.30
2022-08-17T00:24:22.280Z,8.30
2022-08-17T00:24:57.069Z,7.40
2022-08-17T00:25:29.258Z,5.95
2022-08-17T00:26:04.311Z,4.82
2022-08-17T00:26:43.465Z,7.82
2022-08-17T00:27:17.853Z,8.48
2022-08-17T00:27:55.152Z,5.72
2022-08-17T00:28:31.088Z,6.03
2022-08-17T00:29:06.554Z,7.05
2022-08-17T00:29:42.340Z,6.18
2022-08-17T00:30:14.901Z,7.03
2022-08-17T00:30:52.780Z,5.88
2022-08-17T00:31:28.535Z,6.05
2022-08-17T00:33:15.072Z,5.55
2022-08-17T00:33:15.945Z,6.40
2022-08-17T00:33:49.514Z,5.97
2022-08-17T00:34:21.807Z,6.50
2022-08-17T00:34:53.914Z,6.03
2022-08-17T00:35:27.899Z,6.25
2022-08-17T00:36:06.066Z,6.35
2022-08-17T00:36:38.205Z,6.03
2022-08-17T00:37:10.391Z,6.30
2022-08-17T00:37:45.246Z,6.03
2022-08-17T00:38:17.867Z,8.52
2022-08-17T00:38:50.508Z,6.13
2022-08-17T00:39:25.324Z,6.10
2022-08-17T00:39:57.686Z,6.25
2022-08-17T00:40:40.072Z,5.57
2022-08-17T00:41:21.735Z,6.45
2022-08-17T00:41:53.915Z,5.57
2022-08-17T00:42:30.821Z,6.80
2022-08-17T00:43:15.276Z,7.97
2022-08-17T00:43:52.672Z,7.13
2022-08-17T00:44:24.834Z,6.60
2022-08-17T00:45:04.582Z,6.85
2022-08-17T00:45:39.355Z,6.10
2022-08-17T00:46:15.257Z,7.20
2022-08-17T00:46:48.089Z,6.95
2022-08-17T00:47:22.919Z,7.03
2022-08-17T00:47:55.122Z,7.35
2022-08-17T00:48:30.123Z,6.03
2022-08-17T00:49:06.354Z,6.78
2022-08-17T00:49:38.533Z,7.28
2022-08-17T00:50:13.967Z,5.88
2022-08-17T00:50:55.947Z,6.28
2022-08-17T00:51:36.296Z,6.53
2022-08-17T00:52:16.688Z,6.15
2022-08-17T00:53:25.735Z,6.07
2022-08-17T00:54:05.680Z,6.20
2022-08-17T00:54:42.565Z,6.05
2022-08-17T00:55:15.143Z,5.85
2022-08-17T00:55:50.324Z,6.68
2022-08-17T00:56:28.520Z,6.82
2022-08-17T00:57:05.185Z,6.95
2022-08-17T00:57:45.405Z,5.50
2022-08-17T00:58:36.235Z,7.07
2022-08-17T00:59:14.424Z,6.60
2022-08-17T01:00:02.477Z,6.18
2022-08-17T01:00:43.643Z,6.85
2022-08-17T01:01:21.615Z,6.55
2022-08-17T01:01:54.932Z,5.97
2022-08-17T01:02:34.326Z,6.78
2022-08-17T01:03:25.360Z,6.50
2022-08-17T01:04:00.357Z,6.18
2022-08-17T01:04:33.640Z,6.22
2022-08-17T01:05:07.930Z,6.05
2022-08-17T01:05:44.421Z,6.25
2022-08-17T01:06:17.956Z,7.00
2022-08-17T01:06:51.294Z,5.47
2022-08-17T01:07:24.991Z,7.05
2022-08-17T01:08:01.521Z,6.80
2022-08-17T01:08:34.491Z,6.63
2022-08-17T01:09:08.759Z,5.85
2022-08-17T01:09:44.677Z,5.90
2022-08-17T01:10:59.083Z,5.85
2022-08-17T01:11:15.530Z,6.32
2022-08-17T01:11:52.427Z,6.22
2022-08-17T01:12:24.991Z,6.38
2022-08-17T01:12:59.810Z,6.53
2022-08-17T01:13:41.064Z,6.65
2022-08-17T01:14:16.265Z,6.00
2022-08-17T01:14:48.674Z,5.50
2022-08-17T01:15:20.946Z,8.60
2022-08-17T01:16:00.203Z,5.70
2022-08-17T01:16:32.872Z,6.10
2022-08-17T01:17:07.764Z,5.88
2022-08-17T01:17:40.620Z,6.85
2022-08-17T01:18:13.792Z,6.57
2022-08-17T01:18:52.181Z,5.30
2022-08-17T01:19:28.844Z,6.32
2022-08-17T01:20:01.063Z,5.72
2022-08-17T01:20:43.067Z,6.05
2022-08-17T01:21:27.885Z,5.07
2022-08-17T01:22:05.166Z,6.10
2022-08-17T01:22:42.670Z,6.30
2022-08-17T01:23:20.593Z,5.70
2022-08-17T01:23:53.250Z,8.52
2022-08-17T01:24:25.733Z,6.80
2022-08-17T01:25:02.530Z,6.22
2022-08-17T01:25:35.404Z,6.22
2022-08-17T01:26:07.731Z,7.45
2022-08-17T01:26:44.874Z,8.82
2022-08-17T01:27:18.558Z,6.22
2022-08-17T01:27:52.911Z,6.60
2022-08-17T01:28:33.466Z,5.93
2022-08-17T01:29:24.534Z,7.18
2022-08-17T01:30:01.937Z,6.50
2022-08-17T01:30:56.741Z,6.07
2022-08-17T01:31:35.265Z,6.70
2022-08-17T01:32:08.745Z,6.35
2022-08-17T01:32:41.528Z,7.32
2022-08-17T01:33:16.327Z,5.93
2022-08-17T01:33:48.605Z,6.20
2022-08-17T01:34:21.756Z,7.30
2022-08-17T01:34:58.295Z,6.00
2022-08-17T01:35:30.670Z,6.18
2022-08-17T01:36:03.723Z,5.72
2022-08-17T01:36:39.370Z,5.82
2022-08-17T01:37:13.585Z,6.88
2022-08-17T01:37:48.387Z,6.13
2022-08-17T01:38:27.001Z,6.03
2022-08-17T01:39:00.250Z,6.28
2022-08-17T01:39:35.005Z,6.72
2022-08-17T01:40:17.347Z,5.97
2022-08-17T01:40:57.442Z,6.35
2022-08-17T01:41:29.907Z,5.60
2022-08-17T01:42:12.079Z,7.75
2022-08-17T01:42:51.856Z,5.85
2022-08-17T01:43:31.334Z,7.15
2022-08-17T01:44:06.851Z,5.90
2022-08-17T01:44:39.448Z,6.03
2022-08-17T01:45:19.745Z,5.70
2022-08-17T01:46:40.130Z,5.03
2022-08-17T01:47:12.447Z,6.53
2022-08-17T01:47:44.927Z,5.50
2022-08-17T01:48:20.587Z,6.32
2022-08-17T01:48:53.508Z,6.07
2022-08-17T01:49:25.641Z,5.72
2022-08-17T01:50:00.407Z,6.25
2022-08-17T01:50:35.109Z,6.18
2022-08-17T01:51:07.802Z,6.88
2022-08-17T01:51:43.183Z,5.50
2022-08-17T01:52:16.204Z,5.60
2022-08-17T01:52:56.166Z,6.70
2022-08-17T01:53:36.703Z,5.38
2022-08-17T01:54:13.040Z,5.40
2022-08-17T01:54:47.575Z,6.95
2022-08-17T01:55:27.828Z,5.97
2022-08-17T01:56:04.407Z,5.90
2022-08-17T01:56:41.345Z,6.32
2022-08-17T01:57:16.787Z,8.75
2022-08-17T01:57:48.928Z,6.57
2022-08-17T01:58:21.917Z,6.80
2022-08-17T01:58:56.717Z,6.40
2022-08-17T01:59:28.959Z,7.03
2022-08-17T02:00:01.546Z,6.32
2022-08-17T02:00:59.492Z,6.30
2022-08-17T02:01:31.690Z,5.85
2022-08-17T02:02:07.676Z,5.63
2022-08-17T02:02:40.163Z,6.30
2022-08-17T02:03:13.120Z,5.72
2022-08-17T02:03:53.180Z,6.22
2022-08-17T02:04:34.836Z,6.95
2022-08-17T02:05:08.422Z,6.32
2022-08-17T02:05:40.981Z,6.20
2022-08-17T02:06:27.852Z,6.00
2022-08-17T02:07:00.589Z,6.70
2022-08-17T02:07:59.538Z,6.63
2022-08-17T02:08:38.740Z,6.00
2022-08-17T02:09:16.876Z,8.18
2022-08-17T02:09:52.805Z,6.63
2022-08-17T02:10:25.099Z,6.13
2022-08-17T02:11:12.039Z,6.43
2022-08-17T02:11:46.265Z,8.05
2022-08-17T02:12:38.814Z,6.10
2022-08-17T02:13:13.822Z,6.70
2022-08-17T02:13:48.694Z,5.57
2022-08-17T02:14:33.026Z,6.07
2022-08-17T02:15:07.155Z,6.03
2022-08-17T02:15:42.025Z,6.88
2022-08-17T02:16:14.741Z,5.80
2022-08-17T02:16:47.015Z,10.50
2022-08-17T02:17:21.842Z,7.25
2022-08-17T02:17:54.845Z,5.97
2022-08-17T02:18:28.110Z,6.38
2022-08-17T02:19:03.707Z,5.90
2022-08-17T02:19:35.914Z,6.78
2022-08-17T02:20:09.838Z,6.90
2022-08-17T02:20:45.134Z,5.95
2022-08-17T02:21:17.414Z,5.40
2022-08-17T02:21:51.691Z,7.55
2022-08-17T02:22:26.194Z,6.13
2022-08-17T02:23:03.781Z,7.10
2022-08-17T02:23:45.123Z,7.72
2022-08-17T02:24:58.641Z,7.05
2022-08-17T02:25:20.762Z,7.28
2022-08-17T02:25:59.155Z,6.60
2022-08-17T02:26:31.374Z,7.15
2022-08-17T02:27:06.549Z,6.70
2022-08-17T02:27:39.727Z,6.55
2022-08-17T02:28:12.494Z,6.57
2022-08-17T02:28:47.218Z,6.57
2022-08-17T02:29:19.994Z,6.00
2022-08-17T02:29:52.193Z,6.10
2022-08-17T02:30:30.931Z,6.13
2022-08-17T02:31:19.553Z,6.68
2022-08-17T02:31:51.671Z,7.38
2022-08-17T02:32:29.515Z,6.55
2022-08-17T02:33:04.207Z,6.00
2022-08-17T02:33:43.510Z,7.43
2022-08-17T02:34:18.731Z,5.85
2022-08-17T02:34:51.247Z,5.55
2022-08-17T02:35:23.790Z,7.30
2022-08-17T02:35:58.581Z,6.30
2022-08-17T02:36:30.703Z,6.20
2022-08-17T02:37:02.840Z,6.53
2022-08-17T02:37:38.208Z,7.03
2022-08-17T02:38:10.485Z,6.38
2022-08-17T02:38:45.206Z,6.25
2022-08-17T02:39:20.036Z,6.95
2022-08-17T02:39:52.482Z,6.65
2022-08-17T02:40:36.259Z,8.38
2022-08-17T02:41:13.212Z,8.55
2022-08-17T02:41:45.759Z,9.05
2022-08-17T02:42:18.095Z,9.90
2022-08-17T02:42:52.947Z,11.50
2022-08-17T02:43:25.275Z,10.18
2022-08-17T02:43:57.495Z,10.60
2022-08-17T02:44:38.678Z,12.80
2022-08-17T02:45:15.671Z,13.00
2022-08-17T02:45:47.984Z,13.38
2022-08-17T02:46:20.280Z,12.02
2022-08-17T02:46:55.080Z,11.73
2022-08-17T02:47:28.066Z,11.82
2022-08-17T02:48:00.244Z,12.00
2022-08-17T02:48:34.955Z,11.68
2022-08-17T02:49:07.077Z,10.63
2022-08-17T02:49:39.203Z,11.18
2022-08-17T02:50:17.392Z,10.15
2022-08-17T02:50:49.644Z,10.20
2022-08-17T02:51:22.112Z,9.40
2022-08-17T02:51:56.971Z,9.95
2022-08-17T02:52:43.191Z,9.77
2022-08-17T02:53:16.057Z,9.75
2022-08-17T02:54:05.327Z,10.70
2022-08-17T02:54:46.210Z,8.93
2022-08-17T02:55:23.647Z,9.05
2022-08-17T02:55:56.005Z,7.75
2022-08-17T02:56:28.587Z,8.13
2022-08-17T02:57:03.455Z,8.68
2022-08-17T02:57:37.207Z,8.65
2022-08-17T02:58:10.913Z,8.18
2022-08-17T02:58:46.431Z,9.48
2022-08-17T02:59:18.596Z,7.95
2022-08-17T02:59:50.806Z,7.60
2022-08-17T03:00:28.951Z,7.82
2022-08-17T03:01:01.259Z,9.27
2022-08-17T03:01:33.414Z,8.07
2022-08-17T03:02:10.610Z,9.02
2022-08-17T03:02:46.284Z,8.75
2022-08-17T03:03:19.128Z,8.80
2022-08-17T03:03:53.957Z,8.27
2022-08-17T03:04:26.139Z,8.27
2022-08-17T03:04:58.457Z,8.52
2022-08-17T03:05:35.605Z,8.43
2022-08-17T03:06:08.711Z,8.40
2022-08-17T03:06:40.872Z,8.40
2022-08-17T03:07:16.289Z,8.55
2022-08-17T03:07:49.022Z,7.72
2022-08-17T03:08:21.210Z,7.43
2022-08-17T03:08:58.625Z,7.85
2022-08-17T03:09:30.853Z,7.30
2022-08-17T03:10:03.170Z,8.10
2022-08-17T03:10:37.912Z,6.72
2022-08-17T03:11:10.537Z,7.88
2022-08-17T03:11:42.762Z,7.75
2022-08-17T03:12:18.168Z,9.00
2022-08-17T03:12:51.670Z,6.72
2022-08-17T03:13:24.283Z,8.98
2022-08-17T03:13:59.327Z,8.13
2022-08-17T03:14:32.343Z,6.90
2022-08-17T03:15:06.863Z,7.07
2022-08-17T03:15:43.858Z,8.88
2022-08-17T03:16:16.762Z,10.38
2022-08-17T03:16:48.892Z,7.45
2022-08-17T03:17:23.803Z,6.50
2022-08-17T03:17:56.911Z,7.65
2022-08-17T03:18:29.331Z,6.70
2022-08-17T03:19:04.097Z,7.00
2022-08-17T03:19:36.262Z,6.47
2022-08-17T03:20:12.940Z,6.07
2022-08-17T03:20:47.780Z,7.45
2022-08-17T03:21:19.933Z,6.28
2022-08-17T03:21:55.108Z,9.45
2022-08-17T03:22:36.085Z,9.93
2022-08-17T03:23:10.538Z,15.82
2022-08-17T03:23:43.205Z,10.60
2022-08-17T03:24:20.476Z,9.63
2022-08-17T03:25:00.920Z,10.35
2022-08-17T03:25:35.525Z,13.00
2022-08-17T03:26:15.304Z,10.57
2022-08-17T03:26:47.776Z,11.63
2022-08-17T03:27:19.941Z,11.13
2022-08-17T03:27:52.657Z,10.68
2022-08-17T03:28:28.323Z,15.05
2022-08-17T03:29:00.462Z,11.88
2022-08-17T03:29:32.646Z,11.82
2022-08-17T03:30:09.298Z,10.68
2022-08-17T03:30:41.952Z,8.35
2022-08-17T03:31:18.474Z,7.70
2022-08-17T03:31:50.882Z,7.55
2022-08-17T03:32:23.330Z,9.88
2022-08-17T03:32:58.356Z,7.90
2022-08-17T03:33:33.192Z,7.20
2022-08-17T03:34:05.363Z,6.65
2022-08-17T03:34:37.508Z,10.48
2022-08-17T03:35:10.423Z,8.10
2022-08-17T03:35:48.094Z,8.82
2022-08-17T03:36:22.853Z,8.63
2022-08-17T03:36:55.373Z,7.65
2022-08-17T03:37:27.584Z,8.32
2022-08-17T03:38:02.745Z,7.45
2022-08-17T03:38:38.934Z,7.93
2022-08-17T03:39:14.364Z,7.60
2022-08-17T03:39:49.420Z,8.02
2022-08-17T03:40:57.765Z,7.35
2022-08-17T03:41:16.956Z,7.63
2022-08-17T03:41:49.115Z,8.18
2022-08-17T03:42:32.123Z,8.30
2022-08-17T03:43:09.640Z,11.20
2022-08-17T03:43:41.848Z,9.35
2022-08-17T03:44:14.164Z,8.88
2022-08-17T03:44:51.628Z,8.82
2022-08-17T03:45:44.051Z,9.30
2022-08-17T03:46:35.113Z,9.20
2022-08-17T03:47:34.178Z,9.27
2022-08-17T03:48:21.497Z,11.95
2022-08-17T03:49:08.792Z,10.52
2022-08-17T03:49:55.951Z,8.52
2022-08-17T03:50:43.065Z,8.07
2022-08-17T03:51:35.804Z,9.30
2022-08-17T03:52:22.996Z,8.93
2022-08-17T03:53:10.578Z,9.50
2022-08-17T03:54:04.434Z,8.35
2022-08-17T03:54:55.134Z,7.78
2022-08-17T03:55:44.992Z,8.63
2022-08-17T03:56:32.179Z,8.02
2022-08-17T03:57:09.321Z,8.82
2022-08-17T03:57:41.452Z,11.13
2022-08-17T03:58:13.651Z,9.60
2022-08-17T03:58:49.632Z,9.15
2022-08-17T03:59:23.363Z,8.52
2022-08-17T04:00:01.199Z,8.10
2022-08-17T04:00:35.780Z,10.68
2022-08-17T04:01:12.231Z,9.40
2022-08-17T04:01:47.897Z,10.10
2022-08-17T04:02:24.246Z,8.05
2022-08-17T04:02:56.579Z,8.30
2022-08-17T04:03:31.479Z,8.40
2022-08-17T04:04:04.256Z,10.10
2022-08-17T04:04:37.482Z,9.20
2022-08-17T04:05:12.645Z,9.00
2022-08-17T04:05:45.422Z,10.82
2022-08-17T04:06:17.633Z,9.52
2022-08-17T04:06:52.435Z,11.05
2022-08-17T04:07:27.703Z,8.98
2022-08-17T04:07:59.855Z,11.90
2022-08-17T04:08:32.079Z,12.38
2022-08-17T04:09:07.026Z,12.65
2022-08-17T04:09:39.306Z,12.88
2022-08-17T04:10:11.600Z,13.10
2022-08-17T04:10:49.383Z,10.80
2022-08-17T04:11:21.598Z,11.00
2022-08-17T04:11:54.525Z,10.65
2022-08-17T04:12:44.971Z,12.25
2022-08-17T04:13:24.710Z,11.27
2022-08-17T04:13:57.833Z,11.07
2022-08-17T04:14:39.340Z,11.43
2022-08-17T04:15:26.674Z,10.57
2022-08-17T04:16:00.092Z,12.48
2022-08-17T04:16:36.173Z,11.10
2022-08-17T04:17:08.394Z,9.18
2022-08-17T04:17:41.104Z,12.68
2022-08-17T04:18:15.914Z,11.00
2022-08-17T04:18:48.079Z,9.77
2022-08-17T04:19:20.258Z,9.82
2022-08-17T04:19:55.881Z,10.98
2022-08-17T04:20:28.946Z,11.55
2022-08-17T04:21:01.250Z,10.05
2022-08-17T04:21:36.452Z,9.32
2022-08-17T04:22:08.695Z,9.18
2022-08-17T04:22:55.096Z,10.65
2022-08-17T04:23:34.073Z,12.90
2022-08-17T04:24:06.753Z,10.60
2022-08-17T04:24:38.950Z,10.63
2022-08-17T04:25:19.324Z,10.82
2022-08-17T04:26:53.748Z,10.73
2022-08-17T04:27:21.504Z,10.32
2022-08-17T04:27:53.740Z,10.65
2022-08-17T04:28:26.108Z,12.40
2022-08-17T04:29:01.423Z,10.73
2022-08-17T04:29:54.824Z,11.07
2022-08-17T04:30:30.262Z,10.30
2022-08-17T04:31:02.470Z,9.90
2022-08-17T04:31:37.255Z,10.23
2022-08-17T04:32:09.414Z,10.27
2022-08-17T04:33:03.988Z,9.88
2022-08-17T04:33:42.626Z,11.55
2022-08-17T04:34:14.910Z,8.85
2022-08-17T04:34:53.132Z,8.55
2022-08-17T04:35:30.819Z,10.10
2022-08-17T04:36:06.474Z,9.57
2022-08-17T04:36:41.401Z,9.50
2022-08-17T04:37:22.514Z,10.45
2022-08-17T04:37:54.715Z,9.95
2022-08-17T04:38:31.509Z,10.75
2022-08-17T04:39:04.495Z,11.00
2022-08-17T04:39:39.287Z,10.43
2022-08-17T04:40:27.583Z,9.88
2022-08-17T04:41:18.209Z,9.88
2022-08-17T04:42:05.371Z,10.65
2022-08-17T04:42:37.511Z,10.00
2022-08-17T04:43:11.970Z,9.50
2022-08-17T04:43:48.476Z,11.52
2022-08-17T04:44:37.125Z,11.70
2022-08-17T04:45:11.030Z,13.82
2022-08-17T04:45:55.650Z,12.02
2022-08-17T04:46:32.946Z,12.07
2022-08-17T04:47:07.997Z,11.95
2022-08-17T04:47:42.904Z,9.95
2022-08-17T04:48:15.200Z,11.18
2022-08-17T04:48:52.377Z,11.73
2022-08-17T04:49:24.665Z,13.63
2022-08-17T04:49:56.901Z,11.95
2022-08-17T04:50:31.743Z,11.07
2022-08-17T04:51:07.043Z,10.98
2022-08-17T04:51:45.500Z,12.65
2022-08-17T04:52:42.992Z,12.75
2022-08-17T04:53:17.493Z,12.82
2022-08-17T04:53:55.009Z,12.55
2022-08-17T04:54:27.793Z,10.18
2022-08-17T04:55:03.407Z,10.57
2022-08-17T04:55:38.790Z,10.48
2022-08-17T04:56:16.908Z,10.95
2022-08-17T04:56:53.652Z,14.13
2022-08-17T04:57:25.883Z,13.13
2022-08-17T04:57:58.143Z,10.65
2022-08-17T04:58:30.349Z,11.32
2022-08-17T04:59:07.180Z,10.38
2022-08-17T04:59:39.330Z,10.68
2022-08-17T05:00:12.663Z,10.90
2022-08-17T05:00:47.536Z,13.05
2022-08-17T05:01:24.050Z,12.15
2022-08-17T05:01:59.227Z,11.45
2022-08-17T05:02:32.217Z,11.82
2022-08-17T05:03:05.001Z,12.18
2022-08-17T05:03:37.190Z,12.18
2022-08-17T05:04:33.099Z,10.32
2022-08-17T05:05:07.544Z,10.55
2022-08-17T05:05:44.735Z,10.75
2022-08-17T05:06:23.178Z,11.75
2022-08-17T05:06:55.835Z,10.23
2022-08-17T05:07:31.444Z,9.57
2022-08-17T05:08:08.882Z,10.40
2022-08-17T05:08:41.524Z,11.68
2022-08-17T05:09:17.536Z,11.00
2022-08-17T05:09:49.954Z,11.15
2022-08-17T05:10:22.488Z,13.18
2022-08-17T05:10:57.698Z,12.70
2022-08-17T05:11:32.632Z,11.50
2022-08-17T05:12:08.077Z,10.02
2022-08-17T05:12:40.292Z,15.95
2022-08-17T05:13:15.680Z,13.35
2022-08-17T05:13:52.494Z,10.57
2022-08-17T05:14:33.288Z,10.98
2022-08-17T05:15:12.466Z,12.13
2022-08-17T05:15:48.881Z,11.68
2022-08-17T05:16:22.670Z,12.32
2022-08-17T05:16:54.908Z,11.15
2022-08-17T05:17:29.601Z,12.73
2022-08-17T05:18:02.313Z,14.00
2022-08-17T05:18:34.874Z,15.20
2022-08-17T05:19:09.761Z,15.07
2022-08-17T05:19:41.952Z,11.65
2022-08-17T05:20:14.137Z,14.80
2022-08-17T05:20:46.848Z,16.25
2022-08-17T05:21:22.344Z,15.60
2022-08-17T05:21:54.536Z,13.57
2022-08-17T05:22:26.908Z,11.57
2022-08-17T05:23:07.188Z,11.30
2022-08-17T05:24:42.477Z,12.10
2022-08-17T05:25:10.350Z,11.70
2022-08-17T05:25:45.686Z,12.27
2022-08-17T05:26:26.839Z,11.25
2022-08-17T05:27:06.233Z,12.65
2022-08-17T05:27:41.610Z,10.13
2022-08-17T05:28:16.175Z,10.23
2022-08-17T05:28:48.859Z,11.93
2022-08-17T05:29:33.573Z,11.35
2022-08-17T05:30:08.952Z,11.63
2022-08-17T05:30:42.695Z,11.25
2022-08-17T05:31:17.581Z,11.70
2022-08-17T05:31:49.708Z,10.43
2022-08-17T05:32:37.821Z,13.98
2022-08-17T05:33:16.993Z,11.48
2022-08-17T05:33:49.726Z,11.63
2022-08-17T05:34:24.601Z,12.85
2022-08-17T05:35:00.053Z,10.57
2022-08-17T05:35:34.806Z,11.40
2022-08-17T05:36:11.742Z,9.55
2022-08-17T05:37:03.999Z,9.45
2022-08-17T05:37:39.171Z,10.88
2022-08-17T05:38:11.797Z,9.32
2022-08-17T05:38:46.629Z,10.93
2022-08-17T05:39:18.846Z,10.10
2022-08-17T05:39:51.060Z,10.43
2022-08-17T05:40:25.332Z,9.68
2022-08-17T05:41:01.362Z,10.40
2022-08-17T05:41:33.532Z,11.65
2022-08-17T05:42:09.358Z,11.77
2022-08-17T05:42:44.591Z,10.52
2022-08-17T05:43:19.858Z,10.90
2022-08-17T05:43:56.203Z,11.27
2022-08-17T05:44:31.319Z,9.35
2022-08-17T05:45:03.820Z,9.57
2022-08-17T05:45:55.809Z,11.30
2022-08-17T05:46:38.650Z,9.15
2022-08-17T05:47:10.846Z,9.57
2022-08-17T05:47:44.707Z,10.82
2022-08-17T05:48:19.518Z,8.52
2022-08-17T05:48:56.238Z,9.90
2022-08-17T05:49:31.852Z,10.52
2022-08-17T05:50:09.767Z,14.02
2022-08-17T05:50:51.546Z,14.80
2022-08-17T05:51:41.987Z,12.57
2022-08-17T05:52:59.337Z,11.93
2022-08-17T05:53:44.319Z,9.63
2022-08-17T05:54:29.825Z,11.43
2022-08-17T05:55:17.017Z,9.20
2022-08-17T05:55:55.720Z,9.77
2022-08-17T05:56:54.297Z,8.27
2022-08-17T05:57:44.806Z,10.00
2022-08-17T05:58:33.555Z,12.75
2022-08-17T05:59:14.430Z,11.07
2022-08-17T05:59:57.758Z,10.07
2022-08-17T06:00:44.534Z,11.77
2022-08-17T06:01:30.159Z,8.82
2022-08-17T06:02:10.975Z,8.85
2022-08-17T06:03:01.040Z,9.68
2022-08-17T06:03:49.803Z,10.88
2022-08-17T06:04:34.563Z,8.23
2022-08-17T06:05:17.060Z,9.10
2022-08-17T06:06:09.225Z,10.55
2022-08-17T06:06:46.189Z,10.48
2022-08-17T06:07:21.834Z,10.07
2022-08-17T06:08:05.339Z,8.00
2022-08-17T06:08:51.623Z,10.35
2022-08-17T06:09:41.298Z,9.30
2022-08-17T06:10:24.806Z,10.15
2022-08-17T06:11:02.911Z,10.13
2022-08-17T06:11:53.329Z,9.27
2022-08-17T06:12:54.887Z,9.23
2022-08-17T06:13:45.909Z,7.75
2022-08-17T06:14:55.973Z,7.95
2022-08-17T06:15:36.707Z,9.88
2022-08-17T06:16:28.172Z,8.13
2022-08-17T06:17:10.706Z,9.38
2022-08-17T06:17:46.034Z,7.18
2022-08-17T06:18:21.556Z,9.20
2022-08-17T06:19:02.412Z,8.75
2022-08-17T06:19:44.108Z,10.85
2022-08-17T06:20:16.455Z,10.43
2022-08-17T06:20:55.068Z,9.27
2022-08-17T06:21:33.562Z,10.32
2022-08-17T06:22:09.093Z,9.50
2022-08-17T06:22:46.257Z,9.98
2022-08-17T06:23:26.315Z,10.95
2022-08-17T06:24:08.442Z,9.15
2022-08-17T06:24:44.890Z,8.98
2022-08-17T06:25:21.726Z,8.77
2022-08-17T06:26:01.482Z,9.15
2022-08-17T06:26:42.472Z,9.35
2022-08-17T06:27:25.198Z,11.18
2022-08-17T06:28:06.013Z,8.35
2022-08-17T06:28:44.428Z,10.65
2022-08-17T06:29:27.207Z,9.32
2022-08-17T06:30:09.676Z,8.65
2022-08-17T06:31:00.292Z,9.18
2022-08-17T06:31:38.657Z,11.05
2022-08-17T06:32:12.911Z,9.10
2022-08-17T06:32:48.640Z,8.68
2022-08-17T06:33:28.692Z,13.02
2022-08-17T06:34:03.534Z,9.40
2022-08-17T06:34:38.135Z,8.13
2022-08-17T06:35:15.393Z,9.52
2022-08-17T06:35:59.772Z,14.13
2022-08-17T06:36:51.368Z,10.45
2022-08-17T06:37:43.240Z,11.32
2022-08-17T06:38:37.666Z,9.60
2022-08-17T06:39:27.327Z,10.95
2022-08-17T06:40:17.282Z,10.25
2022-08-17T06:41:05.486Z,8.10
2022-08-17T06:41:49.578Z,8.38
2022-08-17T06:43:02.011Z,9.85
2022-08-17T06:43:59.670Z,8.65
2022-08-17T06:44:50.226Z,8.48
2022-08-17T06:45:31.350Z,10.55
2022-08-17T06:46:11.026Z,9.63
2022-08-17T06:46:48.756Z,10.80
2022-08-17T06:47:29.324Z,8.98
2022-08-17T06:48:10.165Z,11.57
2022-08-17T06:48:47.107Z,9.55
2022-08-17T06:49:27.012Z,9.65
2022-08-17T06:50:14.760Z,8.40
2022-08-17T06:50:51.473Z,8.38
2022-08-17T06:51:31.256Z,8.75
2022-08-17T06:52:42.242Z,10.10
2022-08-17T06:53:22.569Z,10.27
2022-08-17T06:54:02.907Z,9.35
2022-08-17T06:55:20.335Z,10.68
2022-08-17T06:55:57.348Z,8.45
2022-08-17T06:56:53.222Z,8.98
2022-08-17T06:57:31.135Z,7.78
2022-08-17T06:58:15.792Z,10.75
2022-08-17T06:58:49.678Z,11.88
2022-08-17T06:59:54.363Z,8.65
2022-08-17T07:00:26.339Z,10.60
2022-08-17T07:01:06.702Z,9.77
2022-08-17T07:01:45.432Z,9.90
2022-08-17T07:02:29.036Z,9.80
2022-08-17T07:03:29.125Z,9.15
2022-08-17T07:04:12.096Z,8.23
2022-08-17T07:04:44.668Z,8.00
2022-08-17T07:05:23.316Z,9.20
2022-08-17T07:06:01.251Z,9.27
2022-08-17T07:06:41.315Z,9.40
2022-08-17T07:07:28.564Z,9.98
2022-08-17T07:08:07.522Z,9.13
2022-08-17T07:08:52.387Z,8.65
2022-08-17T07:09:31.228Z,8.35
2022-08-17T07:10:04.498Z,8.70
2022-08-17T07:10:44.608Z,8.27
2022-08-17T07:11:21.029Z,8.55
2022-08-17T07:11:57.177Z,10.50
2022-08-17T07:12:38.672Z,8.52
2022-08-17T07:13:29.634Z,8.00
2022-08-17T07:14:17.494Z,9.15
2022-08-17T07:14:56.475Z,9.27
2022-08-17T07:15:43.614Z,9.10
2022-08-17T07:16:19.768Z,8.70
2022-08-17T07:16:58.591Z,8.48
2022-08-17T07:17:47.058Z,11.27
2022-08-17T07:18:29.817Z,8.32
2022-08-17T07:19:02.225Z,8.02
2022-08-17T07:19:38.294Z,9.43
2022-08-17T07:20:16.033Z,8.48
2022-08-17T07:20:51.608Z,10.18
2022-08-17T07:21:40.986Z,9.20
2022-08-17T07:22:22.005Z,8.88
2022-08-17T07:23:04.479Z,9.13
2022-08-17T07:23:47.696Z,8.88
2022-08-17T07:24:35.783Z,7.47
2022-08-17T07:25:10.508Z,7.30
2022-08-17T07:25:49.456Z,9.00
2022-08-17T07:26:26.238Z,7.88
2022-08-17T07:27:11.629Z,7.30
2022-08-17T07:27:51.547Z,8.02
2022-08-17T07:28:24.609Z,8.25
2022-08-17T07:28:57.422Z,10.18
2022-08-17T07:29:34.422Z,8.57
2022-08-17T07:30:16.720Z,7.35
2022-08-17T07:30:56.418Z,8.68
2022-08-17T07:31:33.577Z,8.25
2022-08-17T07:32:06.059Z,9.57
2022-08-17T07:32:45.354Z,8.10
2022-08-17T07:33:21.075Z,8.20
2022-08-17T07:34:06.896Z,9.05
2022-08-17T07:35:10.681Z,7.68
2022-08-17T07:35:48.499Z,8.77
2022-08-17T07:36:29.545Z,8.50
2022-08-17T07:37:07.339Z,7.35
2022-08-17T07:37:41.106Z,7.88
2022-08-17T07:38:24.691Z,7.57
2022-08-17T07:38:58.777Z,7.55
2022-08-17T07:39:31.572Z,8.30
2022-08-17T07:40:19.929Z,8.55
2022-08-17T07:41:05.342Z,8.30
2022-08-17T07:41:57.360Z,7.40
2022-08-17T07:42:31.495Z,8.77
2022-08-17T07:43:12.532Z,8.55
2022-08-17T07:43:56.696Z,7.35
2022-08-17T07:44:29.135Z,9.23
2022-08-17T07:45:23.230Z,10.57
2022-08-17T07:46:31.964Z,10.80
2022-08-17T07:47:20.295Z,8.05
2022-08-17T07:48:07.570Z,9.45
2022-08-17T07:48:43.971Z,10.00
2022-08-17T07:49:38.433Z,10.10
2022-08-17T07:50:27.296Z,9.52
2022-08-17T07:51:00.328Z,8.95
2022-08-17T07:51:37.969Z,9.80
2022-08-17T07:52:47.963Z,7.03
2022-08-17T07:53:20.182Z,8.63
2022-08-17T07:53:54.238Z,7.82
2022-08-17T07:54:32.835Z,7.93
2022-08-17T07:55:26.714Z,8.93
2022-08-17T07:55:58.892Z,8.07
2022-08-17T07:56:41.119Z,9.18
2022-08-17T07:57:39.741Z,6.90
2022-08-17T07:58:17.224Z,9.95
2022-08-17T07:59:05.630Z,8.98
2022-08-17T07:59:43.880Z,8.07
2022-08-17T08:00:29.148Z,9.60
2022-08-17T08:01:18.464Z,9.60
2022-08-17T08:02:06.237Z,10.07
2022-08-17T08:02:45.541Z,8.57
2022-08-17T08:03:26.235Z,9.23
2022-08-17T08:03:59.233Z,7.30
2022-08-17T08:05:49.904Z,9.48
2022-08-17T08:06:27.630Z,9.68
2022-08-17T08:07:02.696Z,8.13
2022-08-17T08:07:38.625Z,8.82
2022-08-17T08:08:28.622Z,8.60
2022-08-17T08:09:01.925Z,9.43
2022-08-17T08:09:38.708Z,9.88
2022-08-17T08:10:16.953Z,9.68
2022-08-17T08:11:00.127Z,9.35
2022-08-17T08:11:41.235Z,10.63
2022-08-17T08:12:34.046Z,10.35
2022-08-17T08:13:46.830Z,13.70
2022-08-17T08:14:29.609Z,10.10
2022-08-17T08:15:19.053Z,10.68
2022-08-17T08:15:54.773Z,10.13
2022-08-17T08:16:29.848Z,8.35
2022-08-17T08:17:07.135Z,7.40
2022-08-17T08:17:52.080Z,9.52
2022-08-17T08:18:38.663Z,10.57
2022-08-17T08:19:27.306Z,10.05
2022-08-17T08:20:44.639Z,8.20
2022-08-17T08:21:01.120Z,10.38
2022-08-17T08:21:46.635Z,9.50
2022-08-17T08:22:29.650Z,9.23
2022-08-17T08:23:15.618Z,9.68
2022-08-17T08:23:53.110Z,9.20
2022-08-17T08:24:48.104Z,8.48
2022-08-17T08:25:38.726Z,7.90
2022-08-17T08:26:23.236Z,8.40
2022-08-17T08:27:01.889Z,9.68
2022-08-17T08:27:48.861Z,9.48
2022-08-17T08:28:30.085Z,9.02
2022-08-17T08:29:14.758Z,8.30
2022-08-17T08:29:56.554Z,8.52
2022-08-17T08:30:34.427Z,10.45